createdAt,value
2019-01-20T00:02:25.173Z,30.37
2019-01-20T00:04:51.609Z,30.15
2019-01-20T00:07:18.033Z,29.97
2019-01-20T00:09:44.532Z,30.03
2019-01-20T00:12:10.996Z,29.98
2019-01-20T00:14:37.481Z,29.96
2019-01-20T00:17:03.981Z,29.77
2019-01-20T00:19:30.572Z,29.80
2019-01-20T00:21:57.059Z,29.98
2019-01-20T00:24:23.689Z,30.07
2019-01-20T00:26:50.251Z,30.19
2019-01-20T00:29:16.902Z,30.02
2019-01-20T00:31:43.358Z,30.10
2019-01-20T00:34:11.442Z,30.18
2019-01-20T00:36:37.959Z,30.19
2019-01-20T00:40:18.710Z,29.99
2019-01-20T00:42:47.082Z,30.21
2019-01-20T00:45:16.162Z,30.35
2019-01-20T00:47:42.870Z,30.28
2019-01-20T00:50:12.265Z,30.17
2019-01-20T00:52:38.728Z,30.24
2019-01-20T00:55:09.544Z,30.14
2019-01-20T00:57:36.747Z,30.08
2019-01-20T01:00:09.431Z,30.09
2019-01-20T01:02:36.085Z,30.29
2019-01-20T01:05:04.381Z,30.30
2019-01-20T01:07:30.776Z,30.11
2019-01-20T01:09:57.186Z,30.22
2019-01-20T01:12:23.710Z,30.21
2019-01-20T01:14:50.114Z,30.31
2019-01-20T01:17:17.172Z,30.14
2019-01-20T01:19:43.576Z,30.08
2019-01-20T01:22:10.055Z,29.90
2019-01-20T01:24:36.806Z,29.79
2019-01-20T01:27:03.195Z,29.80
2019-01-20T01:29:29.576Z,29.66
2019-01-20T01:31:56.331Z,29.53
2019-01-20T01:34:22.749Z,29.47
2019-01-20T01:36:49.171Z,29.45
2019-01-20T01:39:15.923Z,29.41
2019-01-20T01:41:42.308Z,29.42
2019-01-20T01:44:08.691Z,29.37
2019-01-20T01:46:35.080Z,29.34
2019-01-20T01:49:01.520Z,29.38
2019-01-20T01:51:27.895Z,29.42
2019-01-20T01:53:54.282Z,29.31
2019-01-20T01:56:21.179Z,29.22
2019-01-20T01:58:47.814Z,29.30
2019-01-20T02:01:17.404Z,29.28
2019-01-20T02:03:43.839Z,29.34
2019-01-20T02:06:10.327Z,29.33
2019-01-20T02:08:36.794Z,29.41
2019-01-20T02:11:03.289Z,29.45
2019-01-20T02:13:29.706Z,29.54
2019-01-20T02:15:56.287Z,29.51
2019-01-20T02:18:22.788Z,29.58
2019-01-20T02:20:49.195Z,29.57
2019-01-20T02:23:15.847Z,29.59
2019-01-20T02:25:42.403Z,29.63
2019-01-20T02:28:08.937Z,29.68
2019-01-20T02:30:35.444Z,29.68
2019-01-20T02:33:01.999Z,29.68
2019-01-20T02:35:28.969Z,29.76
2019-01-20T02:37:55.388Z,29.73
2019-01-20T02:40:21.801Z,29.78
2019-01-20T02:42:48.353Z,29.76
2019-01-20T02:45:15.525Z,29.75
2019-01-20T02:47:42.030Z,29.79
2019-01-20T02:50:12.245Z,29.81
2019-01-20T02:52:38.707Z,29.74
2019-01-20T02:55:05.435Z,29.84
2019-01-20T02:57:31.803Z,29.81
2019-01-20T02:59:58.218Z,29.85
2019-01-20T03:02:24.713Z,29.82
2019-01-20T03:04:51.092Z,29.87
2019-01-20T03:07:17.516Z,29.93
2019-01-20T03:09:44.019Z,29.87
2019-01-20T03:12:10.774Z,29.86
2019-01-20T03:14:37.156Z,29.74
2019-01-20T03:17:03.545Z,29.62
2019-01-20T03:19:30.480Z,29.47
2019-01-20T03:21:57.542Z,29.40
2019-01-20T03:24:23.941Z,29.31
2019-01-20T03:26:50.349Z,29.27
2019-01-20T03:29:16.797Z,29.17
2019-01-20T03:31:43.196Z,29.25
2019-01-20T03:34:09.689Z,29.37
2019-01-20T03:36:36.083Z,29.42
2019-01-20T03:39:04.194Z,29.38
2019-01-20T03:41:30.575Z,29.40
2019-01-20T03:43:56.971Z,29.41
2019-01-20T03:46:23.410Z,29.45
2019-01-20T03:48:49.817Z,29.37
2019-01-20T03:51:16.320Z,29.41
2019-01-20T03:53:42.713Z,29.40
2019-01-20T03:56:09.233Z,29.42
2019-01-20T03:58:35.632Z,29.37
2019-01-20T04:01:02.179Z,29.39
2019-01-20T04:03:28.928Z,29.34
2019-01-20T04:05:55.474Z,29.43
2019-01-20T04:08:21.883Z,29.56
2019-01-20T04:10:49.403Z,29.65
2019-01-20T04:13:15.882Z,29.60
2019-01-20T04:15:42.393Z,29.64
2019-01-20T04:18:12.044Z,29.71
2019-01-20T04:20:38.735Z,29.68
2019-01-20T04:23:05.373Z,29.68
2019-01-20T04:25:31.866Z,29.74
2019-01-20T04:27:58.392Z,29.75
2019-01-20T04:30:24.890Z,29.75
2019-01-20T04:32:51.489Z,29.72
2019-01-20T04:35:17.897Z,29.69
2019-01-20T04:37:44.354Z,29.75
2019-01-20T04:40:15.598Z,29.76
2019-01-20T04:42:42.384Z,29.73
2019-01-20T04:45:12.259Z,29.74
2019-01-20T04:47:39.032Z,29.66
2019-01-20T04:50:10.405Z,29.66
2019-01-20T04:52:36.843Z,29.74
2019-01-20T04:55:08.942Z,29.74
2019-01-20T04:57:35.558Z,29.79
2019-01-20T05:00:05.529Z,29.74
2019-01-20T05:02:31.954Z,29.74
2019-01-20T05:04:58.360Z,29.82
2019-01-20T05:07:25.849Z,29.88
2019-01-20T05:09:52.388Z,29.90
2019-01-20T05:12:18.772Z,29.83
2019-01-20T05:14:45.302Z,29.73
2019-01-20T05:17:11.753Z,29.63
2019-01-20T05:19:38.422Z,29.51
2019-01-20T05:22:06.138Z,29.41
2019-01-20T05:24:32.533Z,29.34
2019-01-20T05:26:59.027Z,29.25
2019-01-20T05:29:25.517Z,29.30
2019-01-20T05:31:52.039Z,29.34
2019-01-20T05:34:18.393Z,29.27
2019-01-20T05:36:44.777Z,29.32
2019-01-20T05:39:11.370Z,29.22
2019-01-20T05:41:37.862Z,29.46
2019-01-20T05:44:04.278Z,29.46
2019-01-20T05:46:31.075Z,29.48
2019-01-20T05:48:57.725Z,29.42
2019-01-20T05:51:24.194Z,29.40
2019-01-20T05:53:50.770Z,29.58
2019-01-20T05:56:17.313Z,29.47
2019-01-20T05:58:43.678Z,29.44
2019-01-20T06:01:10.148Z,29.42
2019-01-20T06:03:36.660Z,29.50
2019-01-20T06:06:03.056Z,29.48
2019-01-20T06:08:29.787Z,29.49
2019-01-20T06:10:56.175Z,29.45
2019-01-20T06:13:22.568Z,29.52
2019-01-20T06:15:49.278Z,29.52
2019-01-20T06:18:15.666Z,29.48
2019-01-20T06:20:42.033Z,29.54
2019-01-20T06:23:08.567Z,29.50
2019-01-20T06:25:34.907Z,29.55
2019-01-20T06:28:01.301Z,29.54
2019-01-20T06:30:29.964Z,29.49
2019-01-20T06:32:56.396Z,29.50
2019-01-20T06:35:22.932Z,29.55
2019-01-20T06:37:49.296Z,29.56
2019-01-20T06:40:15.777Z,29.54
2019-01-20T06:42:42.143Z,29.56
2019-01-20T06:45:11.951Z,29.57
2019-01-20T06:47:38.333Z,29.51
2019-01-20T06:50:10.771Z,29.59
2019-01-20T06:52:37.403Z,29.52
2019-01-20T06:55:06.323Z,29.51
2019-01-20T06:57:32.928Z,29.67
2019-01-20T06:59:59.282Z,29.76
2019-01-20T07:02:25.797Z,29.72
2019-01-20T07:04:52.320Z,29.55
2019-01-20T07:07:18.756Z,29.34
2019-01-20T07:09:45.137Z,29.18
2019-01-20T07:12:11.589Z,29.09
2019-01-20T07:14:38.096Z,28.98
2019-01-20T07:17:04.506Z,28.93
2019-01-20T07:19:32.103Z,28.87
2019-01-20T07:21:59.725Z,28.81
2019-01-20T07:24:26.208Z,28.92
2019-01-20T07:26:52.695Z,28.84
2019-01-20T07:29:19.141Z,28.82
2019-01-20T07:31:45.553Z,28.81
2019-01-20T07:34:11.945Z,28.87
2019-01-20T07:36:38.376Z,28.90
2019-01-20T07:39:05.950Z,28.84
2019-01-20T07:41:32.416Z,28.82
2019-01-20T07:43:58.816Z,28.80
2019-01-20T07:46:25.237Z,28.80
2019-01-20T07:48:51.673Z,28.79
2019-01-20T07:51:18.102Z,28.75
2019-01-20T07:53:44.494Z,28.71
2019-01-20T07:56:11.030Z,28.63
2019-01-20T07:58:37.524Z,28.80
2019-01-20T08:01:03.927Z,28.58
2019-01-20T08:03:30.309Z,28.66
2019-01-20T08:05:56.732Z,28.62
2019-01-20T08:08:23.154Z,28.63
2019-01-20T08:10:49.579Z,28.60
2019-01-20T08:13:16.092Z,28.59
2019-01-20T08:15:42.458Z,28.63
2019-01-20T08:18:08.876Z,28.59
2019-01-20T08:20:35.325Z,28.59
2019-01-20T08:23:03.271Z,28.45
2019-01-20T08:25:29.728Z,28.48
2019-01-20T08:27:56.120Z,28.38
2019-01-20T08:30:24.829Z,28.59
2019-01-20T08:32:51.228Z,28.60
2019-01-20T08:35:17.608Z,28.53
2019-01-20T08:37:45.375Z,28.51
2019-01-20T08:40:16.452Z,28.42
2019-01-20T08:42:42.835Z,28.40
2019-01-20T08:45:15.131Z,28.27
2019-01-20T08:47:43.618Z,28.19
2019-01-20T08:50:10.355Z,28.12
2019-01-20T08:52:37.027Z,28.06
2019-01-20T08:55:06.971Z,28.04
2019-01-20T08:57:33.506Z,27.94
2019-01-20T08:59:59.926Z,27.94
2019-01-20T09:02:26.314Z,27.90
2019-01-20T09:04:53.862Z,27.31
2019-01-20T09:07:20.674Z,27.71
2019-01-20T09:09:47.261Z,27.84
2019-01-20T09:12:13.835Z,27.83
2019-01-20T09:14:40.278Z,27.80
2019-01-20T09:17:06.859Z,27.81
2019-01-20T09:19:33.466Z,27.74
2019-01-20T09:21:59.964Z,27.74
2019-01-20T09:24:26.553Z,27.73
2019-01-20T09:26:52.955Z,27.79
2019-01-20T09:29:19.576Z,27.72
2019-01-20T09:31:45.983Z,27.67
2019-01-20T09:34:12.403Z,27.57
2019-01-20T09:36:38.824Z,27.53
2019-01-20T09:39:09.275Z,27.50
2019-01-20T09:41:36.027Z,27.51
2019-01-20T09:44:02.501Z,27.53
2019-01-20T09:46:28.917Z,27.68
2019-01-20T09:48:55.373Z,27.68
2019-01-20T09:51:22.045Z,27.65
2019-01-20T09:53:48.530Z,27.63
2019-01-20T09:56:15.106Z,27.60
2019-01-20T09:58:41.634Z,27.63
2019-01-20T10:01:08.083Z,27.63
2019-01-20T10:03:34.526Z,27.66
2019-01-20T10:06:01.098Z,27.72
2019-01-20T10:08:27.571Z,27.74
2019-01-20T10:10:54.042Z,27.66
2019-01-20T10:13:20.509Z,27.86
2019-01-20T10:15:52.330Z,28.04
2019-01-20T10:18:18.446Z,28.19
2019-01-20T10:20:44.848Z,28.16
2019-01-20T10:23:11.485Z,28.15
2019-01-20T10:25:37.858Z,28.23
2019-01-20T10:28:05.070Z,28.21
2019-01-20T10:30:35.208Z,28.22
2019-01-20T10:33:01.600Z,28.33
2019-01-20T10:35:30.255Z,28.39
2019-01-20T10:37:58.566Z,28.34
2019-01-20T10:40:24.936Z,28.34
2019-01-20T10:42:51.343Z,28.92
2019-01-20T10:45:17.682Z,28.83
2019-01-20T10:47:44.058Z,28.67
2019-01-20T10:50:13.777Z,28.78
2019-01-20T10:52:40.164Z,28.97
2019-01-20T10:55:07.214Z,28.91
2019-01-20T10:57:33.740Z,29.32
2019-01-20T11:00:00.186Z,29.25
2019-01-20T11:02:26.754Z,29.28
2019-01-20T11:04:57.289Z,29.41
2019-01-20T11:07:21.599Z,29.52
2019-01-20T11:09:48.121Z,29.57
2019-01-20T11:12:14.475Z,30.31
2019-01-20T11:14:40.966Z,30.46
2019-01-20T11:17:07.562Z,30.35
2019-01-20T11:19:34.059Z,30.36
2019-01-20T11:22:00.493Z,30.15
2019-01-20T11:24:27.245Z,30.28
2019-01-20T11:26:53.872Z,31.15
2019-01-20T11:29:20.421Z,30.85
2019-01-20T11:31:46.787Z,30.80
2019-01-20T11:34:13.203Z,31.06
2019-01-20T11:36:39.606Z,30.81
2019-01-20T11:39:08.184Z,30.62
2019-01-20T11:41:34.691Z,30.71
2019-01-20T11:44:01.053Z,30.34
2019-01-20T11:46:27.483Z,30.23
2019-01-20T11:48:54.005Z,30.34
2019-01-20T11:51:20.416Z,30.00
2019-01-20T11:53:46.812Z,29.72
2019-01-20T11:56:13.230Z,30.00
2019-01-20T11:58:39.562Z,30.17
2019-01-20T12:01:06.155Z,30.07
2019-01-20T12:03:32.623Z,29.96
2019-01-20T12:05:59.197Z,29.85
2019-01-20T12:08:30.605Z,29.63
2019-01-20T12:10:54.273Z,29.64
2019-01-20T12:13:22.748Z,29.81
2019-01-20T12:15:49.187Z,29.83
2019-01-20T12:18:15.788Z,29.62
2019-01-20T12:20:42.118Z,29.70
2019-01-20T12:23:08.535Z,29.62
2019-01-20T12:25:34.978Z,29.87
2019-01-20T12:28:01.387Z,30.07
2019-01-20T12:30:32.674Z,29.73
2019-01-20T12:32:59.342Z,30.14
2019-01-20T14:18:03.804Z,55.46
2019-01-20T14:20:30.391Z,56.73
2019-01-20T14:29:55.620Z,58.54
2019-01-20T14:32:26.205Z,43.32
2019-01-20T14:34:53.704Z,38.31
2019-01-20T14:37:32.136Z,36.33
2019-01-20T14:40:17.531Z,35.13
2019-01-20T14:42:43.919Z,36.71
2019-01-20T14:46:40.390Z,28.67
2019-01-20T14:49:06.842Z,40.26
2019-01-20T14:51:33.261Z,48.74
2019-01-20T14:53:59.770Z,50.82
2019-01-20T14:56:26.360Z,54.33
2019-01-20T14:58:52.925Z,57.16
2019-01-20T15:01:19.559Z,58.48
2019-01-20T15:03:46.939Z,60.38
2019-01-20T15:06:13.373Z,61.38
2019-01-20T15:08:39.895Z,62.16
2019-01-20T15:11:06.297Z,62.74
2019-01-20T15:13:32.832Z,63.64
2019-01-20T15:15:59.333Z,64.34
2019-01-20T15:18:25.706Z,63.62
2019-01-20T15:20:52.057Z,64.33
2019-01-20T15:23:18.517Z,63.99
2019-01-20T15:25:44.911Z,63.89
2019-01-20T15:28:11.277Z,65.38
2019-01-20T15:30:37.675Z,64.98
2019-01-20T15:33:04.475Z,65.22
2019-01-20T15:35:31.046Z,65.28
2019-01-20T15:37:57.569Z,65.46
2019-01-20T15:40:24.090Z,65.27
2019-01-20T15:42:50.516Z,65.05
2019-01-20T15:45:20.407Z,65.43
2019-01-20T15:47:46.789Z,65.69
2019-01-20T15:50:18.022Z,66.08
2019-01-20T15:52:44.576Z,66.92
2019-01-20T15:55:11.038Z,67.19
2019-01-20T15:57:37.662Z,67.30
2019-01-20T16:00:09.779Z,67.54
2019-01-20T16:02:36.170Z,68.58
2019-01-20T16:05:04.598Z,68.63
2019-01-20T16:07:31.093Z,68.49
2019-01-20T16:09:57.608Z,68.60
2019-01-20T16:12:24.024Z,68.12
2019-01-20T16:14:50.409Z,67.78
2019-01-20T16:17:16.802Z,67.35
2019-01-20T16:19:43.205Z,67.54
2019-01-20T16:22:09.639Z,68.44
2019-01-20T16:24:37.015Z,68.47
2019-01-20T16:27:03.541Z,68.61
2019-01-20T16:29:29.929Z,68.21
2019-01-20T16:31:56.299Z,68.03
2019-01-20T16:34:22.710Z,68.00
2019-01-20T16:36:49.181Z,68.12
2019-01-20T16:39:15.558Z,68.37
2019-01-20T16:41:42.085Z,68.32
2019-01-20T16:44:08.527Z,68.47
2019-01-20T16:46:34.883Z,68.44
2019-01-20T16:49:01.357Z,67.96
2019-01-20T16:51:27.768Z,67.99
2019-01-20T16:53:57.354Z,67.51
2019-01-20T16:56:23.721Z,67.87
2019-01-20T16:58:51.493Z,68.08
2019-01-20T17:01:18.115Z,68.25
2019-01-20T17:03:44.469Z,67.92
2019-01-20T17:06:10.876Z,67.97
2019-01-20T17:08:37.344Z,67.58
2019-01-20T17:11:03.690Z,67.92
2019-01-20T17:13:30.113Z,68.64
2019-01-20T17:15:56.478Z,68.09
2019-01-20T17:18:23.579Z,68.32
2019-01-20T17:20:50.066Z,67.71
2019-01-20T17:23:16.446Z,67.81
2019-01-20T17:25:42.873Z,67.10
2019-01-20T17:28:09.329Z,66.80
2019-01-20T17:30:37.133Z,66.58
2019-01-20T17:33:07.259Z,67.38
2019-01-20T17:35:35.379Z,66.95
2019-01-20T17:38:02.255Z,67.42
2019-01-20T17:40:29.583Z,67.81
2019-01-20T17:42:56.172Z,67.02
2019-01-20T17:45:27.844Z,67.16
2019-01-20T17:47:54.423Z,68.36
2019-01-20T17:50:25.730Z,67.51
2019-01-20T17:52:52.792Z,67.57
2019-01-20T17:55:19.379Z,67.14
2019-01-20T17:57:45.784Z,67.51
2019-01-20T18:00:17.371Z,67.29
2019-01-20T18:02:43.985Z,66.89
2019-01-20T18:05:24.106Z,67.23
2019-01-20T18:07:51.722Z,67.33
2019-01-20T18:10:18.393Z,67.61
2019-01-20T18:12:44.919Z,67.39
2019-01-20T18:15:15.489Z,67.70
2019-01-20T18:17:41.923Z,67.80
2019-01-20T18:20:14.002Z,67.53
2019-01-20T18:22:40.453Z,67.47
2019-01-20T18:25:11.725Z,67.07
2019-01-20T18:27:38.195Z,67.31
2019-01-20T18:30:11.418Z,67.33
2019-01-20T18:32:38.206Z,67.15
2019-01-20T18:35:09.867Z,67.50
2019-01-20T18:37:36.371Z,68.20
2019-01-20T18:40:09.036Z,67.81
2019-01-20T18:42:35.767Z,67.23
2019-01-20T18:45:03.367Z,68.03
2019-01-20T18:47:29.907Z,67.87
2019-01-20T18:49:56.833Z,67.87
2019-01-20T18:52:23.999Z,68.10
2019-01-20T18:54:50.574Z,67.54
2019-01-20T18:57:17.147Z,67.68
2019-01-20T18:59:43.877Z,67.82
2019-01-20T19:02:10.465Z,67.78
2019-01-20T19:04:37.162Z,67.67
2019-01-20T19:07:06.743Z,67.57
2019-01-20T19:09:35.291Z,67.79
2019-01-20T19:12:02.153Z,67.39
2019-01-20T19:14:28.616Z,67.14
2019-01-20T19:16:54.964Z,67.41
2019-01-20T19:19:21.366Z,67.76
2019-01-20T19:21:47.779Z,68.10
2019-01-20T19:24:14.175Z,68.08
2019-01-20T19:26:40.587Z,68.10
2019-01-20T19:29:07.075Z,67.73
2019-01-20T19:31:33.815Z,67.98
2019-01-20T19:34:00.303Z,68.37
2019-01-20T19:36:26.729Z,68.61
2019-01-20T19:38:53.295Z,68.84
2019-01-20T19:41:19.950Z,69.12
2019-01-20T19:43:46.339Z,69.34
2019-01-20T19:46:16.395Z,69.88
2019-01-20T19:48:42.327Z,69.59
2019-01-20T19:51:09.170Z,69.92
2019-01-20T19:53:36.892Z,70.32
2019-01-20T19:56:03.647Z,70.29
2019-01-20T19:58:30.841Z,70.18
2019-01-20T20:00:57.403Z,70.58
2019-01-20T20:03:24.407Z,70.75
2019-01-20T20:05:50.846Z,70.31
2019-01-20T20:08:17.290Z,71.17
2019-01-20T20:10:43.663Z,71.45
2019-01-20T20:13:10.098Z,71.32
2019-01-20T20:15:36.566Z,71.78
2019-01-20T20:18:02.946Z,72.29
2019-01-20T20:20:29.461Z,71.77
2019-01-20T20:22:55.976Z,71.57
2019-01-20T20:25:24.256Z,71.63
2019-01-20T20:27:51.917Z,72.14
2019-01-20T20:30:23.692Z,71.70
2019-01-20T20:32:51.287Z,72.15
2019-01-20T20:35:17.860Z,73.00
2019-01-20T20:37:44.246Z,72.99
2019-01-20T20:40:15.131Z,73.23
2019-01-20T20:42:41.724Z,73.71
2019-01-20T20:45:13.331Z,72.78
2019-01-20T20:47:39.833Z,73.52
2019-01-20T20:50:10.916Z,74.25
2019-01-20T20:52:38.340Z,73.66
2019-01-20T20:55:07.016Z,73.02
2019-01-20T20:57:34.045Z,72.90
2019-01-20T21:00:00.659Z,72.69
2019-01-20T21:02:27.561Z,72.17
2019-01-20T21:04:53.906Z,73.93
2019-01-20T21:07:20.376Z,74.05
2019-01-20T21:09:46.734Z,74.07
2019-01-20T21:12:14.349Z,74.99
2019-01-20T21:14:40.738Z,75.30
2019-01-20T21:17:07.102Z,74.73
2019-01-20T21:19:33.509Z,74.41
2019-01-20T21:22:00.066Z,73.97
2019-01-20T21:24:28.183Z,73.68
2019-01-20T21:26:54.815Z,73.94
2019-01-20T21:29:21.310Z,73.90
2019-01-20T21:31:47.688Z,73.14
2019-01-20T21:34:14.055Z,73.01
2019-01-20T21:36:40.455Z,72.66
2019-01-20T21:39:06.909Z,72.51
2019-01-20T21:41:33.304Z,72.68
2019-01-20T21:43:59.663Z,72.63
2019-01-20T21:46:26.063Z,72.23
2019-01-20T21:48:52.439Z,72.11
2019-01-20T21:51:18.940Z,72.05
2019-01-20T21:53:45.595Z,71.57
2019-01-20T21:56:11.997Z,71.87
2019-01-20T21:58:38.379Z,71.25
2019-01-20T22:01:06.864Z,71.21
2019-01-20T22:03:33.492Z,70.99
2019-01-20T22:05:59.907Z,71.25
2019-01-20T22:08:26.252Z,71.33
2019-01-20T22:10:52.940Z,70.91
2019-01-20T22:13:19.330Z,71.32
2019-01-20T22:15:45.669Z,71.31
2019-01-20T22:18:12.105Z,71.27
2019-01-20T22:20:38.480Z,70.81
2019-01-20T22:23:04.817Z,71.05
2019-01-20T22:25:31.228Z,70.77
2019-01-20T22:27:57.577Z,70.51
2019-01-20T22:30:24.773Z,70.37
2019-01-20T22:32:51.516Z,70.18
2019-01-20T22:35:18.157Z,70.68
2019-01-20T22:37:44.625Z,70.44
2019-01-20T22:40:14.658Z,70.37
2019-01-20T22:42:41.091Z,70.20
2019-01-20T22:45:11.925Z,69.91
2019-01-20T22:47:38.828Z,69.73
2019-01-20T22:50:09.903Z,70.03
2019-01-20T22:52:36.434Z,70.00
2019-01-20T22:55:07.561Z,70.10
2019-01-20T22:57:33.948Z,69.88
2019-01-20T23:00:00.563Z,69.69
2019-01-20T23:02:27.148Z,69.45
2019-01-20T23:04:53.927Z,69.56
2019-01-20T23:07:21.803Z,69.60
2019-01-20T23:10:01.327Z,69.74
2019-01-20T23:12:28.664Z,69.56
2019-01-20T23:15:02.437Z,69.53
2019-01-20T23:17:31.282Z,69.46
2019-01-20T23:19:57.990Z,69.57
2019-01-20T23:22:24.402Z,69.20
2019-01-20T23:24:50.809Z,69.50
2019-01-20T23:27:17.351Z,68.99
2019-01-20T23:29:43.919Z,68.92
2019-01-20T23:32:10.297Z,68.94
2019-01-20T23:34:36.918Z,69.49
2019-01-20T23:37:03.523Z,69.48
2019-01-20T23:39:29.965Z,69.11
2019-01-20T23:41:56.541Z,69.33
2019-01-20T23:44:22.921Z,68.90
2019-01-20T23:46:49.444Z,69.25
2019-01-20T23:49:15.795Z,69.25
2019-01-20T23:51:42.363Z,69.59
2019-01-20T23:54:08.850Z,69.59
2019-01-20T23:56:35.392Z,69.98
2019-01-20T23:59:01.965Z,70.00
